Dover Air Force Base

Airport
ICAO code: 
KDOV
Summary
ICAO Region: 
NAM
Territory: 
Location: 
Dover, Delaware,
Elevation: 
24 ft
Coordinates: 
Aerial View: 
39° 7' 40.762" N, 75° 27' 52.117" W
Airport BS: 
Bird Strike
Metar
Observation
KDOV 040656Z AUTO 00000KT 10SM OVC080 07/02 A3009 RMK AO2 SLP193 T00660015 $
Station
Dover Air Force Base
Date/Time
2021-12-04 06:56:00
Wind direction
Wind speed
00 kts
Lowest cloud amount
overcast
Temperature
6.6°C
Dew point
1.5°C
Humidity
69%
Weather condition
n/a

Description

Dover Air Force Base or Dover AFB is a United States Air Force base located 3.2 km southeast of the city of Dover, Delaware. Civilian use and a Civil Air Terminal are available on a prior permission basis.

Climatology

Humid “subtropical” climate (Köppen climate classification Cfa) - characterized by hot, humid summers and cool winters. Significant amounts of precipitation occur in all seasons in most areas. Winter rainfall (and sometimes snowfall) is associated with large storms that the westerlies steer from west to east. Most summer rainfall occurs during thunderstorms and occasional tropical storms (hurricanes).

Runways

Designator Length Width Surface Rops
1/19 2927 61 PEM Yes/Yes
14/32 3933 46 PEM Yes/Yes
Airport map: 
Aerial View: 

SKYbrary Partners:

Safety knowledge contributed by: